sensor_id;sensor_type;location;lat;lon;timestamp;P1;durP1;ratioP1;P2;durP2;ratioP2
57241;SDS011;43095;53.302;5.786;2023-11-21T00:00:35;6.82;;;1.85;;
57241;SDS011;43095;53.302;5.786;2023-11-21T00:03:02;9.68;;;1.67;;
57241;SDS011;43095;53.302;5.786;2023-11-21T00:05:30;8.95;;;2.15;;
57241;SDS011;43095;53.302;5.786;2023-11-21T00:07:58;5.00;;;1.65;;
57241;SDS011;43095;53.302;5.786;2023-11-21T00:10:25;6.65;;;1.80;;
57241;SDS011;43095;53.302;5.786;2023-11-21T00:12:53;7.18;;;1.35;;
57241;SDS011;43095;53.302;5.786;2023-11-21T00:15:21;10.93;;;1.58;;
57241;SDS011;43095;53.302;5.786;2023-11-21T00:17:49;9.95;;;1.52;;
57241;SDS011;43095;53.302;5.786;2023-11-21T00:20:16;11.07;;;1.42;;
57241;SDS011;43095;53.302;5.786;2023-11-21T00:22:43;7.68;;;1.52;;
57241;SDS011;43095;53.302;5.786;2023-11-21T00:25:10;22.02;;;3.95;;
57241;SDS011;43095;53.302;5.786;2023-11-21T00:27:39;9.80;;;2.72;;
57241;SDS011;43095;53.302;5.786;2023-11-21T00:30:06;12.07;;;2.60;;
57241;SDS011;43095;53.302;5.786;2023-11-21T00:32:35;16.25;;;2.67;;
57241;SDS011;43095;53.302;5.786;2023-11-21T00:35:04;13.70;;;3.25;;
57241;SDS011;43095;53.302;5.786;2023-11-21T00:37:32;15.25;;;3.17;;
57241;SDS011;43095;53.302;5.786;2023-11-21T00:39:59;16.48;;;4.97;;
57241;SDS011;43095;53.302;5.786;2023-11-21T00:42:33;16.08;;;5.15;;
57241;SDS011;43095;53.302;5.786;2023-11-21T00:45:00;18.77;;;6.25;;
57241;SDS011;43095;53.302;5.786;2023-11-21T00:47:27;15.52;;;6.22;;
57241;SDS011;43095;53.302;5.786;2023-11-21T00:49:55;20.80;;;7.68;;
57241;SDS011;43095;53.302;5.786;2023-11-21T00:52:23;23.48;;;6.75;;
57241;SDS011;43095;53.302;5.786;2023-11-21T00:54:51;17.98;;;7.63;;
57241;SDS011;43095;53.302;5.786;2023-11-21T00:57:18;19.65;;;7.63;;
57241;SDS011;43095;53.302;5.786;2023-11-21T00:59:46;21.15;;;6.07;;
57241;SDS011;43095;53.302;5.786;2023-11-21T01:02:13;21.10;;;5.78;;
57241;SDS011;43095;53.302;5.786;2023-11-21T01:04:40;13.48;;;5.88;;
57241;SDS011;43095;53.302;5.786;2023-11-21T01:07:07;14.18;;;4.85;;
57241;SDS011;43095;53.302;5.786;2023-11-21T01:09:35;13.07;;;4.88;;
57241;SDS011;43095;53.302;5.786;2023-11-21T01:12:02;16.70;;;4.72;;
57241;SDS011;43095;53.302;5.786;2023-11-21T01:14:29;16.42;;;3.50;;
57241;SDS011;43095;53.302;5.786;2023-11-21T01:16:57;12.70;;;3.28;;
57241;SDS011;43095;53.302;5.786;2023-11-21T01:19:24;18.55;;;3.20;;
57241;SDS011;43095;53.302;5.786;2023-11-21T01:21:51;11.90;;;2.80;;
57241;SDS011;43095;53.302;5.786;2023-11-21T01:24:19;16.00;;;2.05;;
57241;SDS011;43095;53.302;5.786;2023-11-21T01:26:46;14.57;;;2.25;;
57241;SDS011;43095;53.302;5.786;2023-11-21T01:29:13;8.23;;;2.15;;
57241;SDS011;43095;53.302;5.786;2023-11-21T01:31:41;12.98;;;2.55;;
57241;SDS011;43095;53.302;5.786;2023-11-21T01:34:08;15.55;;;3.03;;
57241;SDS011;43095;53.302;5.786;2023-11-21T01:36:36;16.42;;;2.83;;
57241;SDS011;43095;53.302;5.786;2023-11-21T01:39:04;11.93;;;2.60;;
57241;SDS011;43095;53.302;5.786;2023-11-21T01:41:35;19.15;;;2.95;;
57241;SDS011;43095;53.302;5.786;2023-11-21T01:44:02;15.65;;;3.00;;
57241;SDS011;43095;53.302;5.786;2023-11-21T01:46:30;16.17;;;3.03;;
57241;SDS011;43095;53.302;5.786;2023-11-21T01:48:57;16.33;;;2.67;;
57241;SDS011;43095;53.302;5.786;2023-11-21T01:51:25;18.88;;;3.30;;
57241;SDS011;43095;53.302;5.786;2023-11-21T01:53:54;21.65;;;2.72;;
57241;SDS011;43095;53.302;5.786;2023-11-21T01:56:22;12.57;;;2.53;;
57241;SDS011;43095;53.302;5.786;2023-11-21T01:58:50;14.23;;;2.72;;
57241;SDS011;43095;53.302;5.786;2023-11-21T02:01:17;15.98;;;2.42;;
57241;SDS011;43095;53.302;5.786;2023-11-21T02:03:45;22.95;;;3.80;;
57241;SDS011;43095;53.302;5.786;2023-11-21T02:06:13;22.27;;;4.32;;
57241;SDS011;43095;53.302;5.786;2023-11-21T02:08:40;20.75;;;3.53;;
57241;SDS011;43095;53.302;5.786;2023-11-21T02:11:11;15.35;;;3.03;;
57241;SDS011;43095;53.302;5.786;2023-11-21T02:13:39;14.73;;;2.72;;
57241;SDS011;43095;53.302;5.786;2023-11-21T02:16:10;21.30;;;2.67;;
57241;SDS011;43095;53.302;5.786;2023-11-21T02:18:39;23.85;;;3.10;;
57241;SDS011;43095;53.302;5.786;2023-11-21T02:21:06;14.73;;;2.72;;
57241;SDS011;43095;53.302;5.786;2023-11-21T02:23:36;30.15;;;3.83;;
57241;SDS011;43095;53.302;5.786;2023-11-21T02:26:05;19.90;;;2.65;;
57241;SDS011;43095;53.302;5.786;2023-11-21T02:28:32;21.23;;;3.08;;
57241;SDS011;43095;53.302;5.786;2023-11-21T02:30:59;12.45;;;2.10;;
57241;SDS011;43095;53.302;5.786;2023-11-21T02:33:29;18.17;;;2.90;;
57241;SDS011;43095;53.302;5.786;2023-11-21T02:36:01;12.20;;;1.90;;
57241;SDS011;43095;53.302;5.786;2023-11-21T02:38:29;11.40;;;2.63;;
57241;SDS011;43095;53.302;5.786;2023-11-21T02:40:57;26.38;;;3.28;;
57241;SDS011;43095;53.302;5.786;2023-11-21T02:43:25;14.57;;;2.53;;
57241;SDS011;43095;53.302;5.786;2023-11-21T02:45:53;18.25;;;2.80;;
57241;SDS011;43095;53.302;5.786;2023-11-21T02:48:20;16.98;;;2.60;;
57241;SDS011;43095;53.302;5.786;2023-11-21T02:50:50;18.80;;;4.20;;
57241;SDS011;43095;53.302;5.786;2023-11-21T02:53:19;21.80;;;3.42;;
57241;SDS011;43095;53.302;5.786;2023-11-21T02:55:47;16.50;;;3.33;;
57241;SDS011;43095;53.302;5.786;2023-11-21T02:58:14;17.77;;;2.60;;
57241;SDS011;43095;53.302;5.786;2023-11-21T03:00:42;21.33;;;3.85;;
57241;SDS011;43095;53.302;5.786;2023-11-21T03:03:09;16.98;;;3.00;;
57241;SDS011;43095;53.302;5.786;2023-11-21T03:05:37;13.40;;;2.63;;
57241;SDS011;43095;53.302;5.786;2023-11-21T03:08:06;21.98;;;2.45;;
57241;SDS011;43095;53.302;5.786;2023-11-21T03:10:33;16.73;;;2.70;;
57241;SDS011;43095;53.302;5.786;2023-11-21T03:13:00;10.45;;;2.00;;
57241;SDS011;43095;53.302;5.786;2023-11-21T03:15:27;16.92;;;1.92;;
57241;SDS011;43095;53.302;5.786;2023-11-21T03:17:55;9.77;;;2.08;;
57241;SDS011;43095;53.302;5.786;2023-11-21T03:20:23;14.07;;;1.70;;
57241;SDS011;43095;53.302;5.786;2023-11-21T03:22:50;9.25;;;1.83;;
57241;SDS011;43095;53.302;5.786;2023-11-21T03:25:17;15.25;;;2.97;;
57241;SDS011;43095;53.302;5.786;2023-11-21T03:27:45;25.02;;;5.10;;
57241;SDS011;43095;53.302;5.786;2023-11-21T03:30:12;29.13;;;5.60;;
57241;SDS011;43095;53.302;5.786;2023-11-21T03:32:40;21.98;;;5.72;;
57241;SDS011;43095;53.302;5.786;2023-11-21T03:35:07;23.75;;;6.57;;
57241;SDS011;43095;53.302;5.786;2023-11-21T03:37:35;26.73;;;7.47;;
57241;SDS011;43095;53.302;5.786;2023-11-21T03:40:02;29.42;;;8.82;;
57241;SDS011;43095;53.302;5.786;2023-11-21T03:42:30;26.13;;;8.25;;
57241;SDS011;43095;53.302;5.786;2023-11-21T03:44:58;18.05;;;6.65;;
57241;SDS011;43095;53.302;5.786;2023-11-21T03:47:26;26.88;;;7.07;;
57241;SDS011;43095;53.302;5.786;2023-11-21T03:49:54;21.83;;;6.60;;
57241;SDS011;43095;53.302;5.786;2023-11-21T03:52:22;28.10;;;7.80;;
57241;SDS011;43095;53.302;5.786;2023-11-21T03:54:49;17.67;;;7.32;;
57241;SDS011;43095;53.302;5.786;2023-11-21T03:57:16;19.98;;;6.63;;
57241;SDS011;43095;53.302;5.786;2023-11-21T03:59:43;24.73;;;7.57;;
57241;SDS011;43095;53.302;5.786;2023-11-21T04:02:10;21.52;;;7.43;;
57241;SDS011;43095;53.302;5.786;2023-11-21T04:04:38;18.95;;;6.57;;
57241;SDS011;43095;53.302;5.786;2023-11-21T04:07:05;24.13;;;6.88;;
57241;SDS011;43095;53.302;5.786;2023-11-21T04:09:33;19.40;;;5.97;;
57241;SDS011;43095;53.302;5.786;2023-11-21T04:12:00;18.38;;;5.85;;
57241;SDS011;43095;53.302;5.786;2023-11-21T04:14:27;29.25;;;7.63;;
57241;SDS011;43095;53.302;5.786;2023-11-21T04:16:54;20.95;;;6.63;;
57241;SDS011;43095;53.302;5.786;2023-11-21T04:19:21;21.40;;;6.60;;
57241;SDS011;43095;53.302;5.786;2023-11-21T04:21:49;16.80;;;5.85;;
57241;SDS011;43095;53.302;5.786;2023-11-21T04:24:16;15.63;;;5.60;;
57241;SDS011;43095;53.302;5.786;2023-11-21T04:26:44;14.20;;;5.18;;
57241;SDS011;43095;53.302;5.786;2023-11-21T04:29:11;20.20;;;6.72;;
57241;SDS011;43095;53.302;5.786;2023-11-21T04:31:38;19.88;;;6.68;;
57241;SDS011;43095;53.302;5.786;2023-11-21T04:34:06;22.92;;;7.35;;
57241;SDS011;43095;53.302;5.786;2023-11-21T04:36:33;17.13;;;5.78;;
57241;SDS011;43095;53.302;5.786;2023-11-21T04:39:01;24.83;;;8.15;;
57241;SDS011;43095;53.302;5.786;2023-11-21T04:41:28;30.05;;;10.98;;
57241;SDS011;43095;53.302;5.786;2023-11-21T04:43:58;26.33;;;9.27;;
57241;SDS011;43095;53.302;5.786;2023-11-21T04:46:27;29.08;;;9.35;;
57241;SDS011;43095;53.302;5.786;2023-11-21T04:48:54;24.17;;;9.40;;
57241;SDS011;43095;53.302;5.786;2023-11-21T04:51:21;22.80;;;9.57;;
57241;SDS011;43095;53.302;5.786;2023-11-21T04:53:49;26.25;;;10.27;;
57241;SDS011;43095;53.302;5.786;2023-11-21T04:56:16;26.63;;;11.40;;
57241;SDS011;43095;53.302;5.786;2023-11-21T04:58:43;33.83;;;12.25;;
57241;SDS011;43095;53.302;5.786;2023-11-21T05:01:10;36.20;;;12.70;;
57241;SDS011;43095;53.302;5.786;2023-11-21T05:03:38;31.50;;;11.85;;
57241;SDS011;43095;53.302;5.786;2023-11-21T05:06:05;31.35;;;12.50;;
57241;SDS011;43095;53.302;5.786;2023-11-21T05:08:36;30.05;;;11.48;;
57241;SDS011;43095;53.302;5.786;2023-11-21T05:11:03;30.55;;;11.20;;
57241;SDS011;43095;53.302;5.786;2023-11-21T05:13:31;27.88;;;12.15;;
57241;SDS011;43095;53.302;5.786;2023-11-21T05:16:00;24.15;;;10.10;;
57241;SDS011;43095;53.302;5.786;2023-11-21T05:18:30;25.02;;;11.00;;
57241;SDS011;43095;53.302;5.786;2023-11-21T05:20:57;24.25;;;10.68;;
57241;SDS011;43095;53.302;5.786;2023-11-21T05:23:24;31.45;;;12.73;;
57241;SDS011;43095;53.302;5.786;2023-11-21T05:25:52;26.50;;;12.20;;
57241;SDS011;43095;53.302;5.786;2023-11-21T05:28:19;25.67;;;12.48;;
57241;SDS011;43095;53.302;5.786;2023-11-21T05:30:46;24.15;;;11.50;;
57241;SDS011;43095;53.302;5.786;2023-11-21T05:33:13;27.05;;;13.55;;
57241;SDS011;43095;53.302;5.786;2023-11-21T05:35:41;29.63;;;13.43;;
57241;SDS011;43095;53.302;5.786;2023-11-21T05:38:08;34.13;;;14.38;;
57241;SDS011;43095;53.302;5.786;2023-11-21T05:40:35;34.10;;;13.90;;
57241;SDS011;43095;53.302;5.786;2023-11-21T05:43:03;25.95;;;12.82;;
57241;SDS011;43095;53.302;5.786;2023-11-21T05:45:31;28.02;;;11.52;;
57241;SDS011;43095;53.302;5.786;2023-11-21T05:47:59;25.92;;;12.45;;
57241;SDS011;43095;53.302;5.786;2023-11-21T05:50:26;27.25;;;12.77;;
57241;SDS011;43095;53.302;5.786;2023-11-21T05:52:53;35.22;;;13.68;;
57241;SDS011;43095;53.302;5.786;2023-11-21T05:55:22;31.20;;;13.25;;
57241;SDS011;43095;53.302;5.786;2023-11-21T05:57:52;29.15;;;12.90;;
57241;SDS011;43095;53.302;5.786;2023-11-21T06:00:20;30.90;;;14.13;;
57241;SDS011;43095;53.302;5.786;2023-11-21T06:02:52;27.20;;;12.80;;
57241;SDS011;43095;53.302;5.786;2023-11-21T06:05:22;30.58;;;12.82;;
57241;SDS011;43095;53.302;5.786;2023-11-21T06:07:52;31.17;;;13.77;;
57241;SDS011;43095;53.302;5.786;2023-11-21T06:10:21;36.55;;;14.82;;
57241;SDS011;43095;53.302;5.786;2023-11-21T06:12:51;37.03;;;15.15;;
57241;SDS011;43095;53.302;5.786;2023-11-21T06:15:20;36.63;;;15.70;;
57241;SDS011;43095;53.302;5.786;2023-11-21T06:17:49;34.80;;;15.48;;
57241;SDS011;43095;53.302;5.786;2023-11-21T06:20:20;34.60;;;15.93;;
57241;SDS011;43095;53.302;5.786;2023-11-21T06:22:50;35.13;;;16.38;;
57241;SDS011;43095;53.302;5.786;2023-11-21T06:25:18;31.35;;;15.35;;
57241;SDS011;43095;53.302;5.786;2023-11-21T06:27:46;29.95;;;14.10;;
57241;SDS011;43095;53.302;5.786;2023-11-21T06:30:14;34.50;;;13.85;;
57241;SDS011;43095;53.302;5.786;2023-11-21T06:32:42;32.30;;;13.38;;
57241;SDS011;43095;53.302;5.786;2023-11-21T06:35:13;31.90;;;12.52;;
57241;SDS011;43095;53.302;5.786;2023-11-21T06:37:43;30.50;;;12.40;;
57241;SDS011;43095;53.302;5.786;2023-11-21T06:40:15;30.20;;;13.45;;
57241;SDS011;43095;53.302;5.786;2023-11-21T06:42:45;30.63;;;13.95;;
57241;SDS011;43095;53.302;5.786;2023-11-21T06:45:14;26.45;;;13.15;;
57241;SDS011;43095;53.302;5.786;2023-11-21T06:47:43;24.40;;;12.35;;
57241;SDS011;43095;53.302;5.786;2023-11-21T06:50:11;21.95;;;12.57;;
57241;SDS011;43095;53.302;5.786;2023-11-21T06:52:38;25.65;;;13.13;;
57241;SDS011;43095;53.302;5.786;2023-11-21T06:55:06;23.10;;;11.90;;
57241;SDS011;43095;53.302;5.786;2023-11-21T06:57:37;20.95;;;12.02;;
57241;SDS011;43095;53.302;5.786;2023-11-21T07:00:05;28.30;;;13.27;;
57241;SDS011;43095;53.302;5.786;2023-11-21T07:02:36;24.73;;;13.15;;
57241;SDS011;43095;53.302;5.786;2023-11-21T07:05:05;23.48;;;13.20;;
57241;SDS011;43095;53.302;5.786;2023-11-21T07:07:32;24.98;;;13.93;;
57241;SDS011;43095;53.302;5.786;2023-11-21T07:10:02;27.30;;;14.80;;
57241;SDS011;43095;53.302;5.786;2023-11-21T07:12:30;29.05;;;14.60;;
57241;SDS011;43095;53.302;5.786;2023-11-21T07:14:58;30.35;;;14.18;;
57241;SDS011;43095;53.302;5.786;2023-11-21T07:17:25;30.42;;;14.88;;
57241;SDS011;43095;53.302;5.786;2023-11-21T07:19:52;31.02;;;14.40;;
57241;SDS011;43095;53.302;5.786;2023-11-21T07:22:19;27.65;;;13.18;;
57241;SDS011;43095;53.302;5.786;2023-11-21T07:24:48;26.20;;;13.32;;
57241;SDS011;43095;53.302;5.786;2023-11-21T07:27:17;22.25;;;12.80;;
57241;SDS011;43095;53.302;5.786;2023-11-21T07:29:45;24.33;;;12.93;;
57241;SDS011;43095;53.302;5.786;2023-11-21T07:32:12;26.05;;;13.05;;
57241;SDS011;43095;53.302;5.786;2023-11-21T07:34:40;23.92;;;13.75;;
57241;SDS011;43095;53.302;5.786;2023-11-21T07:37:08;25.60;;;12.85;;
57241;SDS011;43095;53.302;5.786;2023-11-21T07:39:35;25.13;;;12.80;;
57241;SDS011;43095;53.302;5.786;2023-11-21T07:42:03;29.35;;;14.57;;
57241;SDS011;43095;53.302;5.786;2023-11-21T07:44:30;25.08;;;13.32;;
57241;SDS011;43095;53.302;5.786;2023-11-21T07:46:58;28.88;;;13.90;;
57241;SDS011;43095;53.302;5.786;2023-11-21T07:49:25;27.27;;;13.02;;
57241;SDS011;43095;53.302;5.786;2023-11-21T07:51:53;23.73;;;13.75;;
57241;SDS011;43095;53.302;5.786;2023-11-21T07:54:20;28.33;;;13.65;;
57241;SDS011;43095;53.302;5.786;2023-11-21T07:56:48;23.52;;;12.35;;
57241;SDS011;43095;53.302;5.786;2023-11-21T07:59:15;20.95;;;12.50;;
57241;SDS011;43095;53.302;5.786;2023-11-21T08:01:43;22.73;;;12.18;;
57241;SDS011;43095;53.302;5.786;2023-11-21T08:04:12;23.33;;;11.30;;
57241;SDS011;43095;53.302;5.786;2023-11-21T08:06:39;20.70;;;11.75;;
57241;SDS011;43095;53.302;5.786;2023-11-21T08:09:08;25.75;;;11.90;;
57241;SDS011;43095;53.302;5.786;2023-11-21T08:11:35;20.88;;;10.60;;
57241;SDS011;43095;53.302;5.786;2023-11-21T08:14:05;28.27;;;10.80;;
57241;SDS011;43095;53.302;5.786;2023-11-21T08:16:32;22.48;;;11.13;;
57241;SDS011;43095;53.302;5.786;2023-11-21T08:19:00;23.08;;;11.23;;
57241;SDS011;43095;53.302;5.786;2023-11-21T08:21:27;20.25;;;10.55;;
57241;SDS011;43095;53.302;5.786;2023-11-21T08:23:55;20.80;;;10.23;;
57241;SDS011;43095;53.302;5.786;2023-11-21T08:26:23;18.48;;;10.10;;
57241;SDS011;43095;53.302;5.786;2023-11-21T08:28:50;20.80;;;10.23;;
57241;SDS011;43095;53.302;5.786;2023-11-21T08:31:28;19.23;;;9.95;;
57241;SDS011;43095;53.302;5.786;2023-11-21T08:33:55;19.75;;;10.57;;
57241;SDS011;43095;53.302;5.786;2023-11-21T08:36:23;18.80;;;10.80;;
57241;SDS011;43095;53.302;5.786;2023-11-21T08:38:53;23.70;;;11.38;;
57241;SDS011;43095;53.302;5.786;2023-11-21T08:41:20;28.33;;;11.23;;
57241;SDS011;43095;53.302;5.786;2023-11-21T08:43:49;19.85;;;11.50;;
57241;SDS011;43095;53.302;5.786;2023-11-21T08:46:18;23.75;;;13.55;;
57241;SDS011;43095;53.302;5.786;2023-11-21T08:48:46;21.75;;;13.30;;
57241;SDS011;43095;53.302;5.786;2023-11-21T08:51:13;22.40;;;13.90;;
57241;SDS011;43095;53.302;5.786;2023-11-21T08:53:40;28.10;;;13.15;;
57241;SDS011;43095;53.302;5.786;2023-11-21T08:56:08;20.13;;;12.85;;
57241;SDS011;43095;53.302;5.786;2023-11-21T08:58:41;21.00;;;12.32;;
57241;SDS011;43095;53.302;5.786;2023-11-21T09:01:09;22.13;;;11.63;;
57241;SDS011;43095;53.302;5.786;2023-11-21T09:03:36;21.67;;;11.88;;
57241;SDS011;43095;53.302;5.786;2023-11-21T09:06:04;18.67;;;12.27;;
57241;SDS011;43095;53.302;5.786;2023-11-21T09:08:32;18.42;;;12.05;;
57241;SDS011;43095;53.302;5.786;2023-11-21T09:11:00;22.00;;;12.98;;
57241;SDS011;43095;53.302;5.786;2023-11-21T09:13:27;22.55;;;13.10;;
57241;SDS011;43095;53.302;5.786;2023-11-21T09:15:54;23.55;;;12.82;;
57241;SDS011;43095;53.302;5.786;2023-11-21T09:18:21;22.10;;;13.38;;
57241;SDS011;43095;53.302;5.786;2023-11-21T09:20:49;25.02;;;13.77;;
57241;SDS011;43095;53.302;5.786;2023-11-21T09:23:16;21.88;;;13.35;;
57241;SDS011;43095;53.302;5.786;2023-11-21T09:25:43;23.55;;;14.13;;
57241;SDS011;43095;53.302;5.786;2023-11-21T09:28:12;26.25;;;15.82;;
57241;SDS011;43095;53.302;5.786;2023-11-21T09:30:40;25.60;;;15.60;;
57241;SDS011;43095;53.302;5.786;2023-11-21T09:33:07;24.95;;;16.35;;
57241;SDS011;43095;53.302;5.786;2023-11-21T09:35:37;21.98;;;12.68;;
57241;SDS011;43095;53.302;5.786;2023-11-21T09:38:05;24.52;;;13.00;;
57241;SDS011;43095;53.302;5.786;2023-11-21T09:40:37;20.77;;;12.93;;
57241;SDS011;43095;53.302;5.786;2023-11-21T09:43:05;21.88;;;12.00;;
57241;SDS011;43095;53.302;5.786;2023-11-21T09:45:44;14.00;;;9.85;;
57241;SDS011;43095;53.302;5.786;2023-11-21T09:48:14;15.75;;;9.18;;
57241;SDS011;43095;53.302;5.786;2023-11-21T09:50:43;15.98;;;9.60;;
57241;SDS011;43095;53.302;5.786;2023-11-21T09:53:16;15.70;;;9.07;;
57241;SDS011;43095;53.302;5.786;2023-11-21T09:55:49;12.55;;;7.95;;
57241;SDS011;43095;53.302;5.786;2023-11-21T09:58:19;14.23;;;8.98;;
57241;SDS011;43095;53.302;5.786;2023-11-21T10:00:52;17.77;;;9.20;;
57241;SDS011;43095;53.302;5.786;2023-11-21T10:03:23;17.40;;;9.13;;
57241;SDS011;43095;53.302;5.786;2023-11-21T10:05:51;17.00;;;9.80;;
57241;SDS011;43095;53.302;5.786;2023-11-21T10:08:21;15.23;;;9.50;;
57241;SDS011;43095;53.302;5.786;2023-11-21T10:10:51;15.63;;;8.95;;
57241;SDS011;43095;53.302;5.786;2023-11-21T10:13:20;14.23;;;8.85;;
57241;SDS011;43095;53.302;5.786;2023-11-21T10:15:49;15.98;;;9.40;;
57241;SDS011;43095;53.302;5.786;2023-11-21T10:18:18;14.50;;;8.93;;
57241;SDS011;43095;53.302;5.786;2023-11-21T10:20:45;14.25;;;8.45;;
57241;SDS011;43095;53.302;5.786;2023-11-21T10:23:20;12.93;;;8.80;;
57241;SDS011;43095;53.302;5.786;2023-11-21T10:25:53;14.02;;;9.23;;
57241;SDS011;43095;53.302;5.786;2023-11-21T10:28:24;13.40;;;8.77;;
57241;SDS011;43095;53.302;5.786;2023-11-21T10:30:51;15.88;;;9.60;;
57241;SDS011;43095;53.302;5.786;2023-11-21T10:33:21;14.10;;;9.32;;
57241;SDS011;43095;53.302;5.786;2023-11-21T10:35:55;14.75;;;9.73;;
57241;SDS011;43095;53.302;5.786;2023-11-21T10:38:23;14.68;;;9.30;;
57241;SDS011;43095;53.302;5.786;2023-11-21T10:40:52;12.35;;;8.65;;
57241;SDS011;43095;53.302;5.786;2023-11-21T10:43:24;13.40;;;8.10;;
57241;SDS011;43095;53.302;5.786;2023-11-21T10:45:52;14.93;;;9.38;;
57241;SDS011;43095;53.302;5.786;2023-11-21T10:50:53;14.20;;;9.15;;
57241;SDS011;43095;53.302;5.786;2023-11-21T10:53:23;16.40;;;9.02;;
57241;SDS011;43095;53.302;5.786;2023-11-21T10:55:50;12.88;;;8.88;;
57241;SDS011;43095;53.302;5.786;2023-11-21T10:58:38;13.75;;;8.50;;
57241;SDS011;43095;53.302;5.786;2023-11-21T11:01:05;11.38;;;8.48;;
57241;SDS011;43095;53.302;5.786;2023-11-21T11:03:34;13.32;;;10.38;;
57241;SDS011;43095;53.302;5.786;2023-11-21T11:06:04;12.77;;;8.82;;
57241;SDS011;43095;53.302;5.786;2023-11-21T11:08:34;15.95;;;9.25;;
57241;SDS011;43095;53.302;5.786;2023-11-21T11:11:02;11.43;;;8.07;;
57241;SDS011;43095;53.302;5.786;2023-11-21T11:13:30;12.68;;;8.93;;
57241;SDS011;43095;53.302;5.786;2023-11-21T11:15:58;12.43;;;7.78;;
57241;SDS011;43095;53.302;5.786;2023-11-21T11:18:28;12.48;;;8.00;;
57241;SDS011;43095;53.302;5.786;2023-11-21T11:21:18;11.10;;;6.78;;
57241;SDS011;43095;53.302;5.786;2023-11-21T11:27:44;9.90;;;6.45;;
57241;SDS011;43095;53.302;5.786;2023-11-21T11:30:37;9.35;;;7.00;;
57241;SDS011;43095;53.302;5.786;2023-11-21T11:38:50;9.02;;;5.95;;
57241;SDS011;43095;53.302;5.786;2023-11-21T11:41:30;8.93;;;6.38;;
57241;SDS011;43095;53.302;5.786;2023-11-21T11:44:01;9.90;;;6.50;;
57241;SDS011;43095;53.302;5.786;2023-11-21T11:46:41;10.70;;;6.55;;
57241;SDS011;43095;53.302;5.786;2023-11-21T11:49:24;9.02;;;6.25;;
57241;SDS011;43095;53.302;5.786;2023-11-21T11:55:01;9.23;;;6.70;;
57241;SDS011;43095;53.302;5.786;2023-11-21T11:57:31;10.52;;;6.88;;
57241;SDS011;43095;53.302;5.786;2023-11-21T12:00:16;9.35;;;6.78;;
57241;SDS011;43095;53.302;5.786;2023-11-21T12:02:52;7.97;;;6.25;;
57241;SDS011;43095;53.302;5.786;2023-11-21T12:05:31;8.85;;;6.88;;
57241;SDS011;43095;53.302;5.786;2023-11-21T12:08:02;10.67;;;6.17;;
57241;SDS011;43095;53.302;5.786;2023-11-21T12:10:35;9.02;;;5.55;;
57241;SDS011;43095;53.302;5.786;2023-11-21T12:13:06;8.52;;;5.53;;
57241;SDS011;43095;53.302;5.786;2023-11-21T12:15:35;7.45;;;5.03;;
57241;SDS011;43095;53.302;5.786;2023-11-21T12:18:04;8.43;;;5.60;;
57241;SDS011;43095;53.302;5.786;2023-11-21T12:20:32;8.38;;;5.75;;
57241;SDS011;43095;53.302;5.786;2023-11-21T12:23:05;10.40;;;6.43;;
57241;SDS011;43095;53.302;5.786;2023-11-21T12:25:33;8.68;;;5.78;;
57241;SDS011;43095;53.302;5.786;2023-11-21T12:28:03;10.57;;;6.22;;
57241;SDS011;43095;53.302;5.786;2023-11-21T12:30:33;11.52;;;6.28;;
57241;SDS011;43095;53.302;5.786;2023-11-21T12:33:02;8.30;;;6.00;;
57241;SDS011;43095;53.302;5.786;2023-11-21T12:35:31;7.50;;;5.45;;
57241;SDS011;43095;53.302;5.786;2023-11-21T12:38:01;9.63;;;6.70;;
57241;SDS011;43095;53.302;5.786;2023-11-21T12:40:31;9.88;;;5.82;;
57241;SDS011;43095;53.302;5.786;2023-11-21T12:42:59;10.95;;;6.10;;
57241;SDS011;43095;53.302;5.786;2023-11-21T12:45:29;9.40;;;5.78;;
57241;SDS011;43095;53.302;5.786;2023-11-21T12:48:04;9.18;;;5.95;;
57241;SDS011;43095;53.302;5.786;2023-11-21T12:50:38;12.00;;;6.32;;
57241;SDS011;43095;53.302;5.786;2023-11-21T12:53:07;9.73;;;6.10;;
57241;SDS011;43095;53.302;5.786;2023-11-21T12:55:38;8.80;;;5.90;;
57241;SDS011;43095;53.302;5.786;2023-11-21T12:58:07;11.93;;;6.75;;
57241;SDS011;43095;53.302;5.786;2023-11-21T13:00:48;11.65;;;6.57;;
57241;SDS011;43095;53.302;5.786;2023-11-21T13:03:16;9.95;;;7.10;;
57241;SDS011;43095;53.302;5.786;2023-11-21T13:05:47;10.52;;;6.50;;
57241;SDS011;43095;53.302;5.786;2023-11-21T13:08:21;9.57;;;6.50;;
57241;SDS011;43095;53.302;5.786;2023-11-21T13:10:51;14.90;;;8.70;;
57241;SDS011;43095;53.302;5.786;2023-11-21T13:13:24;10.57;;;7.10;;
57241;SDS011;43095;53.302;5.786;2023-11-21T13:15:59;14.75;;;8.20;;
57241;SDS011;43095;53.302;5.786;2023-11-21T13:18:30;13.18;;;8.50;;
57241;SDS011;43095;53.302;5.786;2023-11-21T13:20:59;11.70;;;7.55;;
57241;SDS011;43095;53.302;5.786;2023-11-21T13:23:35;13.30;;;7.95;;
57241;SDS011;43095;53.302;5.786;2023-11-21T13:26:04;11.38;;;7.88;;
57241;SDS011;43095;53.302;5.786;2023-11-21T13:28:33;10.73;;;7.72;;
57241;SDS011;43095;53.302;5.786;2023-11-21T13:31:03;12.27;;;8.02;;
57241;SDS011;43095;53.302;5.786;2023-11-21T13:33:50;16.10;;;8.18;;
57241;SDS011;43095;53.302;5.786;2023-11-21T13:36:23;12.52;;;7.82;;
57241;SDS011;43095;53.302;5.786;2023-11-21T13:38:52;13.15;;;7.97;;
57241;SDS011;43095;53.302;5.786;2023-11-21T13:41:20;11.93;;;8.10;;
57241;SDS011;43095;53.302;5.786;2023-11-21T13:43:54;10.95;;;7.53;;
57241;SDS011;43095;53.302;5.786;2023-11-21T13:46:30;12.55;;;6.88;;
57241;SDS011;43095;53.302;5.786;2023-11-21T13:49:04;14.35;;;7.32;;
57241;SDS011;43095;53.302;5.786;2023-11-21T13:51:37;12.15;;;7.57;;
57241;SDS011;43095;53.302;5.786;2023-11-21T13:54:11;12.32;;;6.68;;
57241;SDS011;43095;53.302;5.786;2023-11-21T13:56:38;12.40;;;7.70;;
57241;SDS011;43095;53.302;5.786;2023-11-21T13:59:07;10.02;;;6.78;;
57241;SDS011;43095;53.302;5.786;2023-11-21T14:01:52;11.57;;;7.63;;
57241;SDS011;43095;53.302;5.786;2023-11-21T14:04:20;11.57;;;6.40;;
57241;SDS011;43095;53.302;5.786;2023-11-21T14:07:02;10.73;;;7.00;;
57241;SDS011;43095;53.302;5.786;2023-11-21T14:09:47;9.27;;;6.20;;
57241;SDS011;43095;53.302;5.786;2023-11-21T14:12:16;10.68;;;6.57;;
57241;SDS011;43095;53.302;5.786;2023-11-21T14:14:43;11.93;;;5.80;;
57241;SDS011;43095;53.302;5.786;2023-11-21T14:17:12;10.02;;;7.05;;
57241;SDS011;43095;53.302;5.786;2023-11-21T14:19:39;7.85;;;4.65;;
57241;SDS011;43095;53.302;5.786;2023-11-21T14:22:07;11.15;;;5.13;;
57241;SDS011;43095;53.302;5.786;2023-11-21T14:24:36;11.60;;;5.78;;
57241;SDS011;43095;53.302;5.786;2023-11-21T14:27:04;11.95;;;6.25;;
57241;SDS011;43095;53.302;5.786;2023-11-21T14:29:31;12.15;;;6.72;;
57241;SDS011;43095;53.302;5.786;2023-11-21T14:32:05;14.70;;;6.90;;
57241;SDS011;43095;53.302;5.786;2023-11-21T14:34:34;11.40;;;6.43;;
57241;SDS011;43095;53.302;5.786;2023-11-21T14:37:01;8.32;;;5.78;;
57241;SDS011;43095;53.302;5.786;2023-11-21T14:39:32;9.77;;;5.55;;
57241;SDS011;43095;53.302;5.786;2023-11-21T14:42:04;9.07;;;5.32;;
57241;SDS011;43095;53.302;5.786;2023-11-21T14:44:34;7.68;;;4.50;;
57241;SDS011;43095;53.302;5.786;2023-11-21T14:47:05;9.80;;;3.92;;
57241;SDS011;43095;53.302;5.786;2023-11-21T14:49:41;8.68;;;4.78;;
57241;SDS011;43095;53.302;5.786;2023-11-21T14:52:20;10.27;;;4.00;;
57241;SDS011;43095;53.302;5.786;2023-11-21T14:55:02;8.05;;;4.70;;
57241;SDS011;43095;53.302;5.786;2023-11-21T14:57:49;6.50;;;4.25;;